Time;durP1;ratioP1;P1;durP2;ratioP2;P2;SDS_P1;SDS_P2;PMS_P1;PMS_P2;Temp;Humidity;BMP_temperature;BMP_pressure;BME280_temperature;BME280_humidity;BME280_pressure;Samples;Min_cycle;Max_cycle;Signal;HPM_P1;HPM_P2
2021/09/04 00:00:26;;;;;;;20.20;11.67;;;;;;;13.63;100.00;101134.19;5032834;28;20208;-67
2021/09/04 00:02:51;;;;;;;16.70;10.60;;;;;;;13.60;100.00;101121.81;5033071;28;20568;-67
2021/09/04 00:05:16;;;;;;;26.37;11.07;;;;;;;13.60;100.00;101126.31;5032773;28;20199;-67
2021/09/04 00:07:42;;;;;;;16.73;10.37;;;;;;;13.56;100.00;101122.97;5032778;28;20184;-67
2021/09/04 00:10:08;;;;;;;19.60;10.83;;;;;;;13.53;100.00;101125.84;5031783;28;20572;-67
2021/09/04 00:12:33;;;;;;;19.80;10.83;;;;;;;13.50;100.00;101122.47;5031561;28;20176;-67
2021/09/04 00:14:59;;;;;;;22.70;10.40;;;;;;;13.45;100.00;101123.63;5033164;28;20219;-67
2021/09/04 00:17:24;;;;;;;19.23;10.07;;;;;;;13.43;100.00;101124.69;5034619;28;20181;-67
2021/09/04 00:19:50;;;;;;;18.40;10.30;;;;;;;13.48;100.00;101127.06;5032869;28;20696;-67
2021/09/04 00:22:15;;;;;;;22.40;10.27;;;;;;;13.54;100.00;101132.94;5031845;28;20522;-67
2021/09/04 00:24:41;;;;;;;17.73;9.07;;;;;;;13.59;100.00;101124.59;5032723;28;20210;-67
2021/09/04 00:27:06;;;;;;;22.13;9.47;;;;;;;13.63;100.00;101129.69;5031455;28;20188;-66
2021/09/04 00:29:32;;;;;;;22.50;10.13;;;;;;;13.66;100.00;101129.50;5032534;28;20227;-67
2021/09/04 00:31:58;;;;;;;17.63;8.90;;;;;;;13.71;100.00;101130.06;5031513;28;20230;-67
2021/09/04 00:34:23;;;;;;;14.63;8.73;;;;;;;13.77;100.00;101129.72;5032513;28;20184;-67
2021/09/04 00:36:48;;;;;;;23.30;9.37;;;;;;;13.82;100.00;101128.56;5032381;28;20247;-67
2021/09/04 00:39:14;;;;;;;17.23;8.60;;;;;;;13.84;100.00;101134.69;5031556;28;20532;-67
2021/09/04 00:41:39;;;;;;;22.03;8.53;;;;;;;13.85;100.00;101131.94;5032346;28;20663;-67
2021/09/04 00:44:05;;;;;;;18.13;8.63;;;;;;;13.86;100.00;101119.38;5031831;28;20176;-67
2021/09/04 00:46:30;;;;;;;18.77;8.30;;;;;;;13.86;100.00;101122.91;5031156;28;20230;-67
2021/09/04 00:48:56;;;;;;;19.23;9.00;;;;;;;13.82;100.00;101125.88;5032677;28;20203;-67
2021/09/04 00:51:21;;;;;;;16.60;8.70;;;;;;;13.72;100.00;101125.56;5032581;28;20177;-67
2021/09/04 00:53:47;;;;;;;15.80;8.40;;;;;;;13.66;100.00;101123.25;5032670;28;20593;-67
2021/09/04 00:56:13;;;;;;;17.73;8.67;;;;;;;13.64;100.00;101122.50;5030692;28;20188;-67
2021/09/04 00:58:39;;;;;;;19.60;8.97;;;;;;;13.64;100.00;101120.69;5030914;28;20310;-67
2021/09/04 01:01:04;;;;;;;19.53;8.37;;;;;;;13.61;100.00;101120.00;5032122;28;20244;-67
2021/09/04 01:03:29;;;;;;;16.80;8.80;;;;;;;13.59;100.00;101116.56;5032635;28;20179;-67
2021/09/04 01:05:55;;;;;;;17.07;8.50;;;;;;;13.60;100.00;101116.47;5035641;28;20208;-67
2021/09/04 01:08:21;;;;;;;17.93;8.60;;;;;;;13.61;100.00;101115.50;5034597;28;20184;-66
2021/09/04 01:10:46;;;;;;;17.90;8.90;;;;;;;13.65;100.00;101124.22;5035751;28;20262;-67
2021/09/04 01:13:12;;;;;;;17.50;8.50;;;;;;;13.64;100.00;101120.69;5034833;28;20246;-67
2021/09/04 01:15:37;;;;;;;19.33;8.17;;;;;;;13.68;100.00;101127.56;5034625;28;20684;-67
2021/09/04 01:18:03;;;;;;;19.47;9.10;;;;;;;13.73;100.00;101117.44;5036109;28;20179;-67
2021/09/04 01:20:30;;;;;;;19.33;8.87;;;;;;;13.82;100.00;101120.53;5035559;28;20239;-67
2021/09/04 01:22:55;;;;;;;20.80;9.67;;;;;;;13.85;100.00;101121.19;5035677;28;20187;-67
2021/09/04 01:25:25;;;;;;;18.63;7.53;;;;;;;13.92;100.00;101110.94;5035713;28;20196;-67
2021/09/04 01:27:52;;;;;;;19.37;8.67;;;;;;;13.94;100.00;101114.38;5034346;28;20176;-67
2021/09/04 01:30:17;;;;;;;15.00;8.90;;;;;;;13.93;100.00;101113.53;5035510;28;20223;-67
2021/09/04 01:32:43;;;;;;;18.23;9.60;;;;;;;13.91;100.00;101111.91;5035437;28;20176;-67
2021/09/04 01:35:10;;;;;;;18.83;8.37;;;;;;;13.90;100.00;101124.44;5034186;28;20550;-67
2021/09/04 01:37:36;;;;;;;18.20;8.47;;;;;;;13.91;100.00;101125.31;5034202;28;20644;-67
2021/09/04 01:40:07;;;;;;;17.77;8.50;;;;;;;13.93;100.00;101123.41;5034124;28;20191;-67
2021/09/04 01:42:32;;;;;;;15.43;7.67;;;;;;;13.98;100.00;101126.66;5034126;28;20230;-67
2021/09/04 01:44:57;;;;;;;17.03;8.33;;;;;;;14.03;100.00;101113.81;5035623;28;20196;-67
2021/09/04 01:47:24;;;;;;;17.93;8.33;;;;;;;14.05;100.00;101112.75;5035365;28;20708;-67
2021/09/04 01:49:50;;;;;;;16.90;8.67;;;;;;;14.11;100.00;101106.13;5035398;28;20169;-67
2021/09/04 01:52:15;;;;;;;18.50;8.80;;;;;;;14.13;100.00;101109.59;5034157;28;20175;-67
2021/09/04 01:54:42;;;;;;;20.70;8.70;;;;;;;14.16;100.00;101108.53;5034203;28;20172;-67
2021/09/04 01:57:07;;;;;;;27.07;8.47;;;;;;;14.13;100.00;101108.75;5034964;28;20251;-67
2021/09/04 01:59:33;;;;;;;17.23;8.53;;;;;;;14.08;100.00;101107.19;5033755;28;20172;-67
2021/09/04 02:01:59;;;;;;;14.73;8.27;;;;;;;14.01;100.00;101107.66;5033865;28;20196;-67
2021/09/04 02:04:24;;;;;;;16.30;8.07;;;;;;;13.98;100.00;101108.72;5035134;28;20176;-67
2021/09/04 02:06:49;;;;;;;16.73;8.83;;;;;;;13.98;100.00;101111.41;5034506;28;20204;-67
2021/09/04 02:09:14;;;;;;;17.60;9.13;;;;;;;14.00;100.00;101108.63;5034790;28;20176;-67
2021/09/04 02:11:40;;;;;;;16.00;8.67;;;;;;;14.03;100.00;101108.44;5035051;28;20183;-67
2021/09/04 02:14:05;;;;;;;19.83;8.60;;;;;;;13.99;100.00;101109.59;5034950;28;20173;-67
2021/09/04 02:16:30;;;;;;;16.80;8.60;;;;;;;14.03;100.00;101106.63;5034752;28;20196;-67
2021/09/04 02:18:56;;;;;;;19.90;9.53;;;;;;;13.99;100.00;101101.53;5034774;28;20249;-67
2021/09/04 02:21:21;;;;;;;17.53;8.10;;;;;;;13.98;100.00;101102.50;5034745;28;20196;-67
2021/09/04 02:23:46;;;;;;;22.17;9.23;;;;;;;13.94;100.00;101104.50;5034723;28;20180;-67
2021/09/04 02:26:11;;;;;;;15.97;8.57;;;;;;;13.89;100.00;101112.00;5035046;28;20206;-67
2021/09/04 02:28:37;;;;;;;17.53;9.40;;;;;;;13.91;100.00;101096.66;5033379;28;20624;-67
2021/09/04 02:31:02;;;;;;;20.83;9.33;;;;;;;13.94;100.00;101098.28;5033536;28;20175;-67
2021/09/04 02:33:27;;;;;;;18.67;9.27;;;;;;;13.92;100.00;101100.19;5034757;28;20177;-67
2021/09/04 02:35:53;;;;;;;16.40;8.53;;;;;;;13.88;100.00;101098.66;5033062;28;20203;-67
2021/09/04 02:38:18;;;;;;;18.53;9.67;;;;;;;13.87;100.00;101099.63;5034321;28;20168;-67
2021/09/04 02:40:43;;;;;;;15.13;8.17;;;;;;;13.87;100.00;101102.31;5034255;28;20234;-67
2021/09/04 02:43:08;;;;;;;20.03;8.60;;;;;;;13.82;100.00;101101.75;5034462;28;20542;-67
2021/09/04 02:45:34;;;;;;;14.00;7.77;;;;;;;13.86;100.00;101093.41;5034801;28;20192;-67
2021/09/04 02:47:59;;;;;;;18.23;8.27;;;;;;;13.86;100.00;101103.28;5032890;28;20172;-67
2021/09/04 02:50:24;;;;;;;15.43;8.27;;;;;;;13.84;100.00;101103.38;5034110;28;20176;-67
2021/09/04 02:52:50;;;;;;;16.87;8.40;;;;;;;13.83;100.00;101100.78;5034425;28;20198;-67
2021/09/04 02:55:15;;;;;;;17.53;8.17;;;;;;;13.77;100.00;101104.72;5032942;28;20192;-67
2021/09/04 02:57:40;;;;;;;16.37;7.67;;;;;;;13.75;100.00;101103.91;5034145;28;20173;-67
2021/09/04 03:00:06;;;;;;;17.00;8.27;;;;;;;13.69;100.00;101109.66;5033940;28;20242;-67
2021/09/04 03:02:32;;;;;;;12.60;7.77;;;;;;;13.66;100.00;101116.09;5033725;28;20180;-67
2021/09/04 03:04:57;;;;;;;16.70;8.63;;;;;;;13.68;100.00;101116.84;5033736;28;20208;-67
2021/09/04 03:07:22;;;;;;;17.20;8.27;;;;;;;13.66;100.00;101117.91;5033754;28;20575;-67
2021/09/04 03:09:47;;;;;;;18.30;8.57;;;;;;;13.65;100.00;101111.69;5034218;28;20172;-67
2021/09/04 03:12:13;;;;;;;16.03;8.53;;;;;;;13.65;100.00;101105.44;5034144;28;20168;-67
2021/09/04 03:14:38;;;;;;;14.33;7.80;;;;;;;13.65;100.00;101108.13;5033884;28;20176;-67
2021/09/04 03:17:04;;;;;;;14.40;8.13;;;;;;;13.70;100.00;101111.38;5032680;28;20168;-67
2021/09/04 03:19:29;;;;;;;15.93;8.23;;;;;;;13.70;100.00;101111.38;5032790;28;20595;-67
2021/09/04 03:21:55;;;;;;;15.40;7.03;;;;;;;13.73;100.00;101113.88;5034868;28;20196;-68
2021/09/04 03:24:20;;;;;;;13.23;7.80;;;;;;;13.75;100.00;101109.28;5033746;28;20258;-67
2021/09/04 03:26:45;;;;;;;16.87;7.60;;;;;;;13.76;100.00;101111.91;5031827;28;20192;-67
2021/09/04 03:29:11;;;;;;;20.43;7.90;;;;;;;13.82;100.00;101110.66;5033357;28;20184;-67
2021/09/04 03:31:36;;;;;;;15.20;7.50;;;;;;;13.80;100.00;101104.53;5032286;28;20541;-67
2021/09/04 03:34:01;;;;;;;15.47;7.30;;;;;;;13.83;100.00;101112.38;5033531;28;20176;-67
2021/09/04 03:36:26;;;;;;;19.03;7.37;;;;;;;13.81;100.00;101119.66;5032109;28;20188;-67
2021/09/04 03:38:52;;;;;;;15.83;7.43;;;;;;;13.82;100.00;101113.34;5015588;28;20254;-67
2021/09/04 03:41:17;;;;;;;15.03;7.53;;;;;;;13.81;100.00;101113.44;5033529;28;20207;-68
2021/09/04 03:43:42;;;;;;;23.20;8.10;;;;;;;13.69;100.00;101106.97;5033188;28;20263;-68
2021/09/04 03:46:08;;;;;;;19.40;8.67;;;;;;;13.67;100.00;101109.75;5033211;28;20196;-67
2021/09/04 03:48:33;;;;;;;19.80;8.37;;;;;;;13.64;100.00;101117.13;5033619;28;20538;-68
2021/09/04 03:50:59;;;;;;;17.60;7.37;;;;;;;13.64;100.00;101109.94;5033173;28;20664;-68
2021/09/04 03:53:24;;;;;;;11.70;6.60;;;;;;;13.63;100.00;101105.53;5032170;28;20205;-67
2021/09/04 03:55:49;;;;;;;14.30;7.90;;;;;;;13.64;100.00;101117.13;5032062;28;20188;-67
2021/09/04 03:58:15;;;;;;;18.00;7.10;;;;;;;13.64;100.00;101118.00;5033043;28;20195;-67
2021/09/04 04:00:40;;;;;;;14.23;7.27;;;;;;;13.68;100.00;101113.31;5032962;28;20200;-67
2021/09/04 04:03:05;;;;;;;21.10;7.43;;;;;;;13.67;100.00;101115.13;5033282;28;20640;-67
2021/09/04 04:05:30;;;;;;;17.00;7.83;;;;;;;13.68;100.00;101111.47;5057876;22;20224;-75
2021/09/04 04:07:56;;;;;;;18.20;7.43;;;;;;;13.80;100.00;101111.72;5053902;28;20180;-75
2021/09/04 04:10:21;;;;;;;21.03;7.80;;;;;;;13.84;100.00;101115.91;5035859;28;20324;-74
2021/09/04 04:12:46;;;;;;;14.70;7.93;;;;;;;13.85;100.00;101115.81;5051684;28;20172;-74
2021/09/04 04:15:12;;;;;;;15.63;7.23;;;;;;;13.79;100.00;101105.47;5052790;28;20175;-74
2021/09/04 04:17:37;;;;;;;19.53;7.33;;;;;;;13.72;100.00;101112.16;5051567;28;20175;-74
2021/09/04 04:20:03;;;;;;;15.60;7.13;;;;;;;13.82;100.00;101117.84;5051392;28;20262;-74
2021/09/04 04:22:28;;;;;;;18.73;7.00;;;;;;;13.86;100.00;101117.56;5051569;28;20215;-74
2021/09/04 04:24:54;;;;;;;19.33;7.27;;;;;;;13.84;100.00;101114.09;5034909;28;20228;-74
2021/09/04 04:27:19;;;;;;;20.13;7.07;;;;;;;13.81;100.00;101114.28;5052993;28;20199;-73
2021/09/04 04:29:44;;;;;;;13.87;6.87;;;;;;;13.80;100.00;101120.63;5052535;28;20176;-73
2021/09/04 04:32:10;;;;;;;19.03;6.67;;;;;;;13.83;100.00;101117.75;5051526;28;20171;-74
2021/09/04 04:34:35;;;;;;;14.43;6.63;;;;;;;13.86;100.00;101119.38;5052878;28;20218;-74
2021/09/04 04:37:00;;;;;;;17.20;6.57;;;;;;;13.91;100.00;101123.50;5052576;28;20221;-73
2021/09/04 04:39:25;;;;;;;14.73;5.97;;;;;;;13.94;100.00;101122.44;5053068;28;20651;-75
2021/09/04 04:41:51;;;;;;;14.63;6.23;;;;;;;13.96;100.00;101113.31;5056454;28;20192;-74
2021/09/04 04:44:16;;;;;;;14.67;6.53;;;;;;;13.95;100.00;101116.09;5055382;28;20171;-75
2021/09/04 04:46:41;;;;;;;17.10;6.87;;;;;;;13.99;100.00;101118.50;5056374;28;20269;-74
2021/09/04 04:49:07;;;;;;;17.80;7.43;;;;;;;14.02;100.00;101126.34;5055222;28;20639;-75
2021/09/04 04:51:32;;;;;;;14.20;7.10;;;;;;;14.02;100.00;101129.03;5056378;28;20178;-75
2021/09/04 04:53:57;;;;;;;12.10;6.80;;;;;;;14.13;100.00;101119.47;5055712;28;20167;-75
2021/09/04 04:56:22;;;;;;;15.97;7.43;;;;;;;14.19;100.00;101132.50;5038881;28;20196;-74
2021/09/04 04:58:48;;;;;;;14.93;6.83;;;;;;;14.32;100.00;101128.06;5056368;28;20179;-74
2021/09/04 05:01:13;;;;;;;13.33;7.10;;;;;;;14.35;100.00;101131.41;5055376;28;20203;-74
2021/09/04 05:03:38;;;;;;;15.47;7.37;;;;;;;14.29;100.00;101136.31;5056107;28;20222;-74
2021/09/04 05:06:04;;;;;;;14.23;7.27;;;;;;;14.23;100.00;101128.66;5054984;28;20207;-74
2021/09/04 05:08:29;;;;;;;16.70;7.40;;;;;;;14.20;100.00;101135.09;5054890;28;20183;-74
2021/09/04 05:10:54;;;;;;;18.77;6.83;;;;;;;14.20;100.00;101136.91;5054942;28;20213;-74
2021/09/04 05:13:20;;;;;;;11.97;6.30;;;;;;;14.19;100.00;101130.69;5054621;28;20172;-74
2021/09/04 05:15:45;;;;;;;15.77;7.23;;;;;;;14.24;100.00;101133.94;5054569;28;20229;-74
2021/09/04 05:18:11;;;;;;;16.13;6.43;;;;;;;14.22;100.00;101135.84;5037971;28;20183;-74
2021/09/04 05:20:37;;;;;;;19.37;7.47;;;;;;;14.21;100.00;101133.28;5055786;28;20199;-74
2021/09/04 05:23:02;;;;;;;13.80;7.37;;;;;;;14.19;100.00;101143.25;5054389;28;20529;-74
2021/09/04 05:25:27;;;;;;;16.63;8.33;;;;;;;14.16;100.00;101143.44;5054477;28;20206;-73
2021/09/04 05:27:53;;;;;;;21.87;7.83;;;;;;;14.08;100.00;101150.13;5055596;28;20171;-74
2021/09/04 05:30:18;;;;;;;15.17;7.37;;;;;;;14.06;100.00;101156.53;5055891;28;20255;-74
2021/09/04 05:32:43;;;;;;;17.20;7.90;;;;;;;14.04;100.00;101140.53;5054270;28;20222;-74
2021/09/04 05:35:09;;;;;;;17.13;8.50;;;;;;;14.15;100.00;101144.41;5055581;28;20623;-74
2021/09/04 05:37:34;;;;;;;14.57;7.33;;;;;;;14.21;100.00;101144.00;5055240;28;20193;-74
2021/09/04 05:39:59;;;;;;;20.23;8.37;;;;;;;14.23;100.00;101145.63;5054991;28;20225;-74
2021/09/04 05:42:24;;;;;;;18.00;8.20;;;;;;;14.20;100.00;101144.97;5055524;28;20168;-73
2021/09/04 05:44:50;;;;;;;12.70;7.70;;;;;;;14.17;100.00;101146.03;5054326;28;20179;-74
2021/09/04 05:47:15;;;;;;;16.33;9.57;;;;;;;14.22;100.00;101148.41;5054107;28;20679;-74
2021/09/04 05:49:40;;;;;;;20.53;8.80;;;;;;;14.22;100.00;101143.03;5055244;28;20191;-74
2021/09/04 05:52:06;;;;;;;19.37;8.87;;;;;;;14.24;100.00;101146.50;5036526;28;20643;-74
2021/09/04 05:54:32;;;;;;;27.83;9.77;;;;;;;14.24;100.00;101154.56;5054106;28;20167;-74
2021/09/04 05:56:57;;;;;;;21.83;8.50;;;;;;;14.34;100.00;101143.13;5054561;28;20605;-73
2021/09/04 05:59:22;;;;;;;20.47;8.40;;;;;;;14.48;100.00;101150.31;5064135;28;20175;-74
2021/09/04 06:01:47;;;;;;;14.67;7.97;;;;;;;14.53;100.00;101142.84;5059187;28;20634;-73
2021/09/04 06:04:13;;;;;;;16.00;7.17;;;;;;;14.58;100.00;101142.56;5054000;28;20201;-73
2021/09/04 06:06:38;;;;;;;16.07;7.80;;;;;;;14.65;100.00;101139.38;5053860;28;20211;-73
2021/09/04 06:09:03;;;;;;;15.23;7.13;;;;;;;14.78;100.00;101143.94;5054130;28;20246;-73
2021/09/04 06:11:29;;;;;;;19.63;7.30;;;;;;;14.94;100.00;101150.91;5036987;28;20171;-73
2021/09/04 06:13:56;;;;;;;15.30;6.93;;;;;;;14.88;100.00;101139.69;5054182;28;20179;-73
2021/09/04 06:16:22;;;;;;;18.33;7.47;;;;;;;14.90;100.00;101148.53;5037325;28;20286;-73
2021/09/04 06:18:47;;;;;;;12.27;6.10;;;;;;;15.05;100.00;101143.94;5060904;28;20171;-73
2021/09/04 06:21:12;;;;;;;22.27;6.73;;;;;;;15.11;100.00;101149.75;5063576;28;20202;-74
2021/09/04 06:23:38;;;;;;;13.63;6.70;;;;;;;15.16;100.00;101150.31;5054357;28;20569;-75
2021/09/04 06:26:03;;;;;;;12.57;6.27;;;;;;;15.23;100.00;101157.00;5056229;28;20714;-74
2021/09/04 06:28:28;;;;;;;17.20;6.50;;;;;;;15.27;100.00;101158.53;5057645;28;20237;-75
2021/09/04 06:30:53;;;;;;;18.43;7.40;;;;;;;15.21;100.00;101161.63;5054403;28;20172;-74
2021/09/04 06:33:19;;;;;;;15.87;6.80;;;;;;;15.32;100.00;101159.09;5053995;28;20217;-74
2021/09/04 06:35:44;;;;;;;15.10;7.33;;;;;;;15.38;100.00;101165.03;5053782;28;20683;-74
2021/09/04 06:38:09;;;;;;;13.37;6.10;;;;;;;15.38;100.00;101165.03;5055364;28;20163;-74
2021/09/04 06:40:35;;;;;;;13.07;6.70;;;;;;;15.46;100.00;101170.72;5036778;28;20195;-74
2021/09/04 06:43:00;;;;;;;15.00;7.17;;;;;;;15.44;100.00;101161.91;5054859;28;20210;-74
2021/09/04 06:45:25;;;;;;;19.60;7.57;;;;;;;15.53;99.90;101172.03;5052895;28;20245;-74
2021/09/04 06:47:50;;;;;;;20.13;7.57;;;;;;;15.54;99.06;101173.75;5053172;28;20516;-74
2021/09/04 06:50:16;;;;;;;13.73;6.90;;;;;;;15.52;100.00;101178.38;5053057;28;20186;-74
2021/09/04 06:52:41;;;;;;;11.43;7.17;;;;;;;15.52;100.00;101183.75;5054023;28;20183;-74
2021/09/04 06:55:07;;;;;;;16.73;7.37;;;;;;;15.52;100.00;101179.25;5053647;28;20172;-73
2021/09/04 06:57:32;;;;;;;17.03;8.23;;;;;;;15.50;100.00;101180.31;5054170;28;20186;-74
2021/09/04 06:59:57;;;;;;;17.67;7.13;;;;;;;15.42;100.00;101183.53;5036251;28;20179;-74
2021/09/04 07:02:23;;;;;;;18.07;8.70;;;;;;;15.42;100.00;101177.28;5052606;28;20200;-74
2021/09/04 07:04:48;;;;;;;17.93;9.43;;;;;;;14.98;100.00;101184.66;5054756;28;20187;-74
2021/09/04 07:07:13;;;;;;;16.47;8.97;;;;;;;14.74;100.00;101190.78;5053273;28;20199;-73
2021/09/04 07:09:39;;;;;;;14.83;7.87;;;;;;;15.02;100.00;101188.88;5054014;28;20171;-73
2021/09/04 07:12:04;;;;;;;16.67;7.77;;;;;;;15.10;100.00;101192.88;5037420;28;20229;-73
2021/09/04 07:14:29;;;;;;;14.70;7.73;;;;;;;15.21;100.00;101188.50;5053025;28;20228;-73
2021/09/04 07:16:54;;;;;;;13.80;7.70;;;;;;;15.06;100.00;101184.16;5035689;28;20211;-74
2021/09/04 07:19:20;;;;;;;20.00;8.33;;;;;;;15.15;99.36;101188.06;5052460;28;20539;-74
2021/09/04 07:21:45;;;;;;;18.77;7.80;;;;;;;14.99;100.00;101182.84;5052233;28;20203;-73
2021/09/04 07:24:10;;;;;;;21.40;7.80;;;;;;;15.18;100.00;101196.78;5054088;28;20647;-73
2021/09/04 07:26:36;;;;;;;14.90;7.47;;;;;;;15.41;98.74;101189.00;5053401;28;20286;-73
2021/09/04 07:29:01;;;;;;;15.13;7.73;;;;;;;15.86;96.54;101188.59;5052144;28;20172;-74
2021/09/04 07:31:26;;;;;;;15.77;6.83;;;;;;;16.29;93.86;101190.97;5052360;28;20175;-74
2021/09/04 07:33:52;;;;;;;14.90;7.33;;;;;;;16.15;92.08;101197.34;5052785;28;20171;-74
2021/09/04 07:36:17;;;;;;;15.73;6.87;;;;;;;16.33;92.04;101195.16;5053664;28;20199;-74
2021/09/04 07:38:42;;;;;;;12.90;6.53;;;;;;;16.72;90.40;101194.16;5052271;28;20246;-74
2021/09/04 07:41:08;;;;;;;14.57;6.20;;;;;;;16.42;92.07;101191.81;5052275;28;20222;-73
2021/09/04 07:43:33;;;;;;;19.13;6.37;;;;;;;17.02;88.16;101188.34;5052412;28;20589;-74
2021/09/04 07:45:58;;;;;;;15.33;6.37;;;;;;;16.98;87.94;101189.53;5052078;28;20721;-74
2021/09/04 07:48:25;;;;;;;14.03;7.90;;;;;;;17.17;87.04;101197.16;5052315;28;20164;-74
2021/09/04 07:50:51;;;;;;;16.53;6.10;;;;;;;17.16;86.49;101196.28;5052107;28;20579;-73
2021/09/04 07:53:16;;;;;;;16.27;6.53;;;;;;;17.23;85.64;101206.63;5052193;28;20206;-74
2021/09/04 07:55:42;;;;;;;10.90;5.30;;;;;;;17.10;86.47;101204.84;5053144;28;20195;-74
2021/09/04 07:58:07;;;;;;;15.63;6.53;;;;;;;17.15;86.68;101205.34;5053371;28;20689;-73
2021/09/04 08:00:32;;;;;;;16.80;7.00;;;;;;;17.21;84.25;101205.88;5051771;28;20223;-73
2021/09/04 08:02:57;;;;;;;14.00;6.60;;;;;;;17.28;83.34;101217.91;5052086;28;20204;-73
2021/09/04 08:05:23;;;;;;;12.80;5.80;;;;;;;17.11;85.37;101209.25;5053043;28;20207;-74
2021/09/04 08:07:48;;;;;;;17.10;6.60;;;;;;;17.52;82.14;101216.06;5052058;28;20160;-73
2021/09/04 08:10:14;;;;;;;13.30;6.00;;;;;;;17.62;81.31;101217.09;5051760;28;20168;-73
2021/09/04 08:12:39;;;;;;;14.43;6.80;;;;;;;17.70;81.00;101217.38;5053030;28;20176;-74
2021/09/04 08:15:05;;;;;;;14.03;6.17;;;;;;;17.87;81.21;101209.84;5052374;28;20182;-74
2021/09/04 08:17:30;;;;;;;14.13;6.30;;;;;;;17.57;81.54;101216.59;5051687;28;20179;-73
2021/09/04 08:19:55;;;;;;;14.27;6.43;;;;;;;17.79;80.33;101211.28;5051976;28;20250;-74
2021/09/04 08:22:21;;;;;;;17.93;6.77;;;;;;;18.06;79.16;101210.97;5052739;28;20196;-74
2021/09/04 08:24:46;;;;;;;12.20;6.57;;;;;;;17.90;79.30;101217.72;5051382;28;20258;-74
2021/09/04 08:27:11;;;;;;;12.67;5.77;;;;;;;18.06;78.14;101218.22;5051357;28;20694;-74
2021/09/04 08:29:36;;;;;;;19.03;6.90;;;;;;;18.27;78.31;101213.00;5034849;28;20655;-74
2021/09/04 08:32:02;;;;;;;13.83;6.40;;;;;;;17.67;79.99;101209.53;5052861;28;20168;-73
2021/09/04 08:34:27;;;;;;;12.37;6.93;;;;;;;17.90;79.74;101213.16;5052970;28;20183;-74
2021/09/04 08:36:52;;;;;;;13.53;6.10;;;;;;;18.10;78.22;101214.31;5051318;28;20550;-74
2021/09/04 08:39:18;;;;;;;15.07;6.23;;;;;;;18.14;78.98;101218.47;5035121;28;20176;-74
2021/09/04 08:41:44;;;;;;;11.87;6.63;;;;;;;18.41;76.42;101221.72;5052948;28;20200;-74
2021/09/04 08:44:09;;;;;;;12.23;5.93;;;;;;;17.62;79.24;101221.63;5053007;28;20203;-74
2021/09/04 08:46:37;;;;;;;12.10;6.07;;;;;;;17.81;79.76;101221.97;5034613;28;20202;-74
2021/09/04 08:49:04;;;;;;;13.10;5.80;;;;;;;17.59;79.88;101217.31;5052800;28;20172;-74
2021/09/04 08:51:31;;;;;;;12.07;6.37;;;;;;;17.56;80.18;101222.09;5034684;28;20179;-73
2021/09/04 08:53:56;;;;;;;18.83;10.57;;;;;;;18.06;77.36;101223.63;5051401;28;20664;-74
2021/09/04 08:56:22;;;;;;;14.70;6.80;;;;;;;17.72;79.01;101225.38;5034397;28;20188;-74
2021/09/04 08:58:47;;;;;;;11.17;5.73;;;;;;;18.06;77.12;101231.72;5051237;28;20171;-73
2021/09/04 09:01:17;;;;;;;10.60;5.70;;;;;;;18.43;75.69;101235.97;5051063;28;20256;-74
2021/09/04 09:03:43;;;;;;;13.07;5.80;;;;;;;18.36;76.34;101232.03;5034580;28;20190;-73
2021/09/04 09:06:08;;;;;;;15.33;7.10;;;;;;;18.90;72.53;101231.28;5052431;28;20199;-73
2021/09/04 09:08:34;;;;;;;13.83;7.00;;;;;;;19.07;71.88;101229.06;5051196;28;20176;-74
2021/09/04 09:11:00;;;;;;;11.30;5.90;;;;;;;19.77;71.09;101234.91;5051438;28;20183;-74
2021/09/04 09:13:26;;;;;;;10.43;4.93;;;;;;;19.56;72.44;101242.13;5051091;28;20241;-74
2021/09/04 09:15:55;;;;;;;11.00;5.50;;;;;;;18.50;75.16;101239.03;5051363;28;20225;-73
2021/09/04 09:18:25;;;;;;;12.17;6.27;;;;;;;18.71;73.66;101244.59;5051171;28;20586;-74
2021/09/04 09:21:02;;;;;;;13.53;5.77;;;;;;;18.77;74.92;101246.81;5050851;28;20671;-74
2021/09/04 09:23:28;;;;;;;14.67;6.20;;;;;;;18.68;73.57;101247.56;5051012;28;20156;-74
2021/09/04 09:25:53;;;;;;;11.13;5.27;;;;;;;18.78;73.92;101240.41;5053176;28;20673;-73
2021/09/04 09:28:20;;;;;;;11.43;5.97;;;;;;;18.61;74.63;101249.00;5054768;28;20171;-74
2021/09/04 09:30:48;;;;;;;14.13;6.40;;;;;;;19.02;73.22;101237.56;5038032;28;20163;-74
2021/09/04 09:33:15;;;;;;;15.83;6.50;;;;;;;19.26;71.85;101238.25;5039149;28;20176;-74
2021/09/04 09:35:45;;;;;;;14.37;5.93;;;;;;;19.89;70.62;101244.69;5054526;28;20188;-74
2021/09/04 09:38:33;;;;;;;12.70;6.23;;;;;;;19.99;69.38;101247.44;5055679;28;20163;-74
2021/09/04 09:40:59;;;;;;;10.83;6.40;;;;;;;19.82;70.30;101240.78;5037875;28;20188;-74
2021/09/04 09:43:28;;;;;;;12.23;5.97;;;;;;;18.84;72.41;101239.91;5054724;28;20650;-74
2021/09/04 09:45:56;;;;;;;12.97;6.50;;;;;;;18.62;73.34;101243.50;5055830;28;20192;-74
2021/09/04 09:48:24;;;;;;;16.17;6.87;;;;;;;17.63;76.11;101243.09;5037835;28;20556;-74
2021/09/04 09:50:51;;;;;;;13.03;6.50;;;;;;;17.72;75.98;101242.44;5055744;28;20346;-73
2021/09/04 09:53:16;;;;;;;14.10;6.30;;;;;;;18.85;72.66;101241.63;5054577;28;20195;-75
2021/09/04 09:55:44;;;;;;;11.07;6.10;;;;;;;19.63;69.07;101238.75;5054752;28;20218;-73
2021/09/04 09:58:10;;;;;;;12.47;5.93;;;;;;;19.78;68.02;101238.47;5054926;28;20179;-75
2021/09/04 10:00:36;;;;;;;10.27;5.70;;;;;;;19.84;67.46;101241.50;5054194;28;20195;-74
2021/09/04 10:03:03;;;;;;;11.00;6.13;;;;;;;20.23;66.93;101247.19;5055671;28;20254;-74
2021/09/04 10:07:58;;;;;;;11.63;6.37;;;;;;;21.15;62.46;101248.88;5054351;28;20664;-67
2021/09/04 10:10:26;;;;;;;14.47;6.53;;;;;;;19.13;69.15;101244.81;5037336;28;20182;-67
2021/09/04 10:12:52;;;;;;;13.97;5.83;;;;;;;19.21;71.27;101240.47;5055143;28;20178;-67
2021/09/04 10:15:18;;;;;;;10.27;5.30;;;;;;;20.31;66.89;101250.09;5055528;28;20180;-67
2021/09/04 10:17:45;;;;;;;14.50;5.20;;;;;;;20.70;65.77;101253.03;5037246;28;20192;-67
2021/09/04 10:20:11;;;;;;;9.90;5.10;;;;;;;20.47;66.59;101249.66;5054851;28;20182;-67
2021/09/04 10:22:37;;;;;;;10.87;5.17;;;;;;;20.37;66.24;101245.97;5037058;28;20187;-67
2021/09/04 10:25:12;;;;;;;10.20;5.20;;;;;;;20.80;64.86;101252.06;5038572;28;20183;-67
2021/09/04 10:27:42;;;;;;;11.90;5.30;;;;;;;20.75;65.11;101248.91;5038033;28;20191;-68
2021/09/04 10:30:21;;;;;;;11.10;5.23;;;;;;;21.53;60.98;101247.25;5037422;28;20180;-67
2021/09/04 10:32:54;;;;;;;12.87;5.60;;;;;;;21.50;60.37;101242.97;5037817;28;20175;-68
2021/09/04 10:35:42;;;;;;;8.53;4.73;;;;;;;21.85;60.65;101242.41;5055687;28;20171;-67
2021/09/04 10:38:21;;;;;;;11.30;4.97;;;;;;;22.23;60.05;101245.25;5055176;28;20175;-67
2021/09/04 10:41:09;;;;;;;9.47;4.87;;;;;;;22.50;58.73;101253.47;5037351;28;20247;-67
2021/09/04 10:43:35;;;;;;;10.33;5.23;;;;;;;22.42;58.61;101239.78;5036904;28;20164;-68
2021/09/04 10:46:00;;;;;;;10.67;5.23;;;;;;;22.19;59.69;101251.97;5037068;28;20207;-67
2021/09/04 10:48:36;;;;;;;10.70;5.20;;;;;;;23.10;57.51;101239.50;5036775;28;20184;-68
2021/09/04 10:51:08;;;;;;;13.40;4.80;;;;;;;23.22;56.71;101241.00;5036895;28;20164;-67
2021/09/04 10:54:00;;;;;;;10.90;5.00;;;;;;;22.86;57.66;101250.94;5054993;28;20162;-67
2021/09/04 10:56:29;;;;;;;9.80;5.23;;;;;;;21.84;57.97;101240.69;5032448;28;20207;-68
2021/09/04 10:58:55;;;;;;;13.83;5.23;;;;;;;23.07;56.20;101237.94;5054464;28;20187;-67
2021/09/04 11:01:34;;;;;;;14.87;6.03;;;;;;;23.76;53.32;101234.59;5036848;28;20213;-67
2021/09/04 11:04:00;;;;;;;11.30;5.43;;;;;;;24.56;51.88;101236.25;5020116;28;20187;-67
2021/09/04 11:06:25;;;;;;;10.50;4.67;;;;;;;28.07;45.75;101242.09;5053936;28;20207;-68
2021/09/04 11:08:54;;;;;;;11.97;4.40;;;;;;;27.91;46.06;101243.13;5053972;28;20182;-66